Etusivu
METAR-TAF:

METAR-TAF

Lentoasemat :

Big Spring McMahon-Wrinkle Airport

Big Spring, Texas, Yhdysvallat

Leveyspiiri: 32-12N, Pituuspiiri: 101-31W, korkeus merenpinnasta: 784 m

Tämänhetkinen sää

Tämä raportti tehtiin 30 minuuttia sitten, kello 11.10 UTC
Tuuli 11 kn etelästä
Lämpötila 15°C
Kosteus 55%
Ilmanpaine 1012 hPa
Näkyvyys: 16.1 km
selkeää

METAR: KBPG 011110Z AUTO 18011KT 10SM CLR 15/06 A2989 RMK AO2 T01480061

Aika: 06:40 (11:40 UTC)


TAF: puuttuu

Säähavainnot ja -ennusteet yli 4000 lentoasemalta (METAR- ja TAF-raportit).

Käytössä olevat sääasemat on merkitty karttaan keltaisilla ja punaisilla pisteillä.

Aseta hiiri pisteen päälle nähdäksesi sääaseman nimen.

Klikkaa sitten nähdäksesi säähavainnot ja -ennusteet.

Kartan vaihtaminen: klikkaa mustalla rastilla varustettuja vihreitä pisteitä, niin voit zoomata sisään; viivalla varustettua vihreää pistettä, niin voit zoomata ulos tai vihreitä nuolia, niin pääset viereisille kartoille.


METAR-TAF: